Flight Track Log - Related Links

Times and Time Zones

All times are in EDT time to prevent confusion due to time zone crossing. See the VIR10 flight status page for this flight to view local times or setup timezone preferences in your user account.

Time Position Orientation Groundspeed Altitude Reporting Facility
EDT Latitude Longitude Course Direction KTS MPH feet Rate Location/Type
Wed 11:05:02 PM 40.6220 -73.7860 211° Southwest 173 199 400  Level FlightAware ADS-B
Wed 11:05:32 PM 40.6040 -73.8010 212° Southwest 147 169 1,900 1,964 Climbing FlightAware ADS-B
Wed 11:05:57 PM 40.5880 -73.8150 214° Southwest 170 196 2,200 600 Climbing FlightAware ADS-B
Wed 11:06:22 PM 40.5690 -73.8270 206° Southwest 197 227 2,400 800 Climbing FlightAware ADS-B
Wed 11:06:57 PM 40.5420 -73.8000 143° Southeast 252 290 3,000 1,200 Climbing FlightAware ADS-B
Wed 11:07:07 PM 40.5410 -73.7860 95° East 265 305 3,300 2,400 Climbing FlightAware ADS-B
Wed 11:07:37 PM 40.5510 -73.7340 76° East 276 318 4,600 2,500 Climbing FlightAware ADS-B
Wed 11:08:07 PM 40.5570 -73.6910 80° East 272 313 5,800 2,509 Climbing FlightAware ADS-B
Wed 11:08:32 PM 40.5560 -73.6460 92° East 275 316 6,900 2,509 Climbing FlightAware ADS-B
Wed 11:09:02 PM 40.5570 -73.5970 88° East 279 321 8,100 2,509 Climbing FlightAware ADS-B
Wed 11:09:27 PM 40.5580 -73.5520 88° East 282 325 9,200 2,057 Climbing FlightAware ADS-B
Wed 11:10:12 PM 40.5580 -73.4760 90° East 301 346 10,500 1,341 Climbing FlightAware ADS-B
Wed 11:10:52 PM 40.5650 -73.3950 83° East 345 397 11,100 1,271 Climbing FlightAware ADS-B
Wed 11:11:37 PM 40.5870 -73.3000 73° East 367 422 12,300 1,976 Climbing FlightAware ADS-B
Wed 11:12:17 PM 40.6060 -73.2190 73° East 368 423 13,900 2,175 Climbing FlightAware ADS-B
Wed 11:12:57 PM 40.6260 -73.1300 73° East 375 432 15,200 1,694 Climbing FlightAware ADS-B
Wed 11:13:42 PM 40.6500 -73.0270 73° East 393 452 16,300 1,624 Climbing FlightAware ADS-B
Wed 11:14:22 PM 40.6700 -72.9380 73° East 400 460 17,500 1,694 Climbing FlightAware ADS-B
Wed 11:15:07 PM 40.6940 -72.8290 74° East 409 471 18,700 1,624 Climbing FlightAware ADS-B
Wed 11:15:47 PM 40.7150 -72.7330 74° East 417 480 19,800 1,575 Climbing FlightAware ADS-B
Wed 11:16:27 PM 40.7370 -72.6370 73° East 423 487 20,800 1,412 Climbing FlightAware ADS-B
Wed 11:17:12 PM 40.7620 -72.5240 74° East 432 497 21,800 1,412 Climbing FlightAware ADS-B
Wed 11:17:52 PM 40.7840 -72.4220 74° East 437 503 22,800 1,425 Climbing FlightAware ADS-B
Wed 11:18:32 PM 40.8070 -72.3200 73° East 441 507 23,700 1,271 Climbing FlightAware ADS-B
Wed 11:19:17 PM 40.8320 -72.2030 74° East 448 516 24,600 1,271 Climbing FlightAware ADS-B
Wed 11:19:57 PM 40.8630 -72.0990 68° East 455 524 25,500 1,200 Climbing FlightAware ADS-B
Wed 11:20:42 PM 40.9280 -72.0120 45° Northeast 466 536 26,300 1,059 Climbing FlightAware ADS-B
Wed 11:21:22 PM 40.9930 -71.9280 44° Northeast 468 539 27,000 1,000 Climbing FlightAware ADS-B
Wed 11:22:12 PM 41.0690 -71.8310 44° Northeast 472 543 27,800 780 Climbing FlightAware ADS-B
Wed 11:23:02 PM 41.1470 -71.7300 44° Northeast 481 554 28,300 733 Climbing FlightAware ADS-B
Wed 11:23:42 PM 41.2040 -71.6420 49° Northeast 480 552 28,900 776 Climbing FlightAware ADS-B
Wed 11:24:27 PM 41.2700 -71.5360 50° Northeast 485 558 29,400 776 Climbing FlightAware ADS-B
Wed 11:25:07 PM 41.3220 -71.4520 50° Northeast 489 563 30,000 720 Climbing FlightAware ADS-B
Wed 11:25:42 PM 41.3720 -71.3730 50° Northeast 492 566 30,300 776 Climbing FlightAware ADS-B
Wed 11:26:32 PM 41.4520 -71.2470 50° Northeast 488 562 31,100 1,133 Climbing FlightAware ADS-B
Wed 11:27:12 PM 41.5100 -71.1530 50° Northeast 481 554 32,000 1,341 Climbing FlightAware ADS-B
Wed 11:27:57 PM 41.5750 -71.0510 50° Northeast 478 550 33,000 1,129 Climbing FlightAware ADS-B
Wed 11:28:37 PM 41.6310 -70.9630 50° Northeast 473 544 33,600 900 Climbing FlightAware ADS-B
Wed 11:29:17 PM 41.6820 -70.8670 55° Northeast 475 547 34,200 1,059 Climbing FlightAware ADS-B
Wed 11:30:02 PM 41.7370 -70.7610 55° Northeast 467 537 35,100 1,271 Climbing FlightAware ADS-B
Wed 11:30:42 PM 41.7880 -70.6620 55° Northeast 462 532 36,000 1,059 Climbing FlightAware ADS-B
Wed 11:31:27 PM 41.8440 -70.5560 55° Northeast 467 537 36,600 565 Climbing FlightAware ADS-B
Wed 11:32:07 PM 41.8930 -70.4720 52° Northeast 480 552 36,800 320 Climbing FlightAware ADS-B
Wed 11:32:42 PM 41.9520 -70.4050 40° Northeast 493 567 37,000 141 Climbing FlightAware ADS-B
Wed 11:33:32 PM 42.0480 -70.3050 38° Northeast 473 544 37,000  Level FlightAware ADS-B
Wed 11:34:12 PM 42.1120 -70.2190 45° Northeast 478 550 37,000  Level FlightAware ADS-B
Wed 11:34:57 PM 42.1850 -70.1210 45° Northeast 480 552 37,000  Level FlightAware ADS-B
Wed 11:35:37 PM 42.2450 -70.0420 44° Northeast 480 552 37,000  Level FlightAware ADS-B
Wed 11:36:22 PM 42.3190 -69.9410 45° Northeast 480 552 37,000  Level FlightAware ADS-B
Wed 11:37:02 PM 42.3810 -69.8580 45° Northeast 481 554 37,000  Level FlightAware ADS-B
Wed 11:37:42 PM 42.4480 -69.7680 45° Northeast 483 556 37,000  Level FlightAware ADS-B
Wed 11:38:27 PM 42.5200 -69.6700 45° Northeast 485 558 37,000  Level FlightAware ADS-B
Wed 11:39:07 PM 42.5820 -69.5860 45° Northeast 487 560 37,000  Level FlightAware ADS-B
Wed 11:39:52 PM 42.6470 -69.4970 45° Northeast 489 563 37,000  Level FlightAware ADS-B
Wed 11:40:32 PM 42.7170 -69.4000 45° Northeast 490 564 37,000  Level FlightAware ADS-B
Wed 11:41:12 PM 42.7820 -69.3110 45° Northeast 492 566 37,000  Level FlightAware ADS-B
Wed 11:41:57 PM 42.8540 -69.2130 45° Northeast 493 567 37,000  Level FlightAware ADS-B
Wed 11:42:37 PM 42.9200 -69.1210 46° Northeast 502 578 37,000  Level FlightAware ADS-B
Wed 11:43:22 PM 42.9930 -69.0190 46° Northeast 501 577 37,000  Level FlightAware ADS-B
Wed 11:44:02 PM 43.0570 -68.9310 45° Northeast 502 578 37,000  Level FlightAware ADS-B
Wed 11:44:37 PM 43.1150 -68.8490 46° Northeast 496 571 37,000  Level FlightAware ADS-B
Wed 11:45:27 PM 43.1920 -68.7410 46° Northeast 495 570 37,000  Level FlightAware ADS-B
Wed 11:46:07 PM 43.2600 -68.6450 46° Northeast 495 570 37,000  Level FlightAware ADS-B
Wed 11:46:47 PM 43.3230 -68.5560 46° Northeast 494 568 37,000  Level FlightAware ADS-B
Wed 11:47:32 PM 43.3950 -68.4550 46° Northeast 493 567 37,000  Level FlightAware ADS-B
Wed 11:48:02 PM 43.4430 -68.3870 46° Northeast 494 568 37,000  Level FlightAware ADS-B
Wed 11:48:47 PM 43.5160 -68.2830 46° Northeast 494 568 37,000  Level FlightAware ADS-B
Wed 11:49:32 PM 43.5820 -68.1880 46° Northeast 496 571 37,000  Level FlightAware ADS-B
Wed 11:50:17 PM 43.6580 -68.0780 46° Northeast 496 571 37,000  Level FlightAware ADS-B
Wed 11:51:12 PM 43.7460 -67.9520 46° Northeast 496 571 37,000  Level FlightAware ADS-B
Wed 11:51:57 PM 43.8180 -67.8470 46° Northeast 496 571 37,000  Level FlightAware ADS-B
Wed 11:52:37 PM 43.8830 -67.7530 46° Northeast 496 571 37,000  Level FlightAware ADS-B
Wed 11:53:37 PM 43.9770 -67.6150 47° Northeast 493 567 37,000  Level FlightAware ADS-B
Wed 11:54:17 PM 44.0400 -67.5230 46° Northeast 498 573 37,000  Level FlightAware ADS-B
Wed 11:55:02 PM 44.1120 -67.4180 46° Northeast 497 572 37,000  Level FlightAware ADS-B
Wed 11:55:32 PM 44.1590 -67.3480 47° Northeast 493 567 37,000  Level FlightAware ADS-B
Wed 11:56:22 PM 44.2360 -67.2350 46° Northeast 482 555 37,000  Level FlightAware ADS-B
Wed 11:57:07 PM 44.3060 -67.1300 47° Northeast 482 555 37,000  Level FlightAware ADS-B
Wed 11:57:47 PM 44.3690 -67.0360 47° Northeast 481 554 37,000  Level FlightAware ADS-B
Wed 11:58:27 PM 44.4300 -66.9450 47° Northeast 482 555 37,000  Level FlightAware ADS-B
Wed 11:59:12 PM 44.4980 -66.8430 47° Northeast 482 555 37,000  Level FlightAware ADS-B
Wed 11:59:52 PM 44.5600 -66.7500 47° Northeast 484 557 37,000  Level FlightAware ADS-B
Thu 12:00:32 AM 44.6220 -66.6560 47° Northeast 485 558 37,000  Level FlightAware ADS-B
Thu 12:01:17 AM 44.6920 -66.5500 47° Northeast 485 558 37,000  Level FlightAware ADS-B
Thu 12:01:57 AM 44.7530 -66.4580 47° Northeast 486 559 37,000  Level FlightAware ADS-B
Thu 12:02:42 AM 44.8220 -66.3510 48° Northeast 486 559 37,000  Level FlightAware ADS-B
Thu 12:03:22 AM 44.8840 -66.2560 47° Northeast 486 559 37,000  Level FlightAware ADS-B
Thu 12:04:07 AM 44.9520 -66.1510 48° Northeast 486 559 37,000  Level FlightAware ADS-B
Thu 12:04:47 AM 45.0140 -66.0550 48° Northeast 487 560 37,000  Level FlightAware ADS-B
Thu 12:05:27 AM 45.0740 -65.9630 47° Northeast 486 559 37,000  Level FlightAware ADS-B
Thu 12:06:12 AM 45.1450 -65.8530 48° Northeast 486 559 37,000  Level FlightAware ADS-B
Thu 12:06:52 AM 45.2050 -65.7590 48° Northeast 486 559 37,000  Level FlightAware ADS-B
Thu 12:07:37 AM 45.2740 -65.6510 48° Northeast 486 559 37,000  Level FlightAware ADS-B
Thu 12:08:17 AM 45.3330 -65.5580 48° Northeast 487 560 37,000  Level FlightAware ADS-B
Thu 12:08:57 AM 45.3940 -65.4630 48° Northeast 485 558 37,000  Level FlightAware ADS-B
Thu 12:09:42 AM 45.4620 -65.3540 48° Northeast 485 558 37,000  Level FlightAware ADS-B
Thu 12:10:22 AM 45.5250 -65.2540 48° Northeast 487 560 37,000  Level FlightAware ADS-B
Thu 12:11:07 AM 45.5920 -65.1470 48° Northeast 485 558 37,000  Level FlightAware ADS-B
Thu 12:11:47 AM 45.6510 -65.0530 48° Northeast 485 558 37,000  Level FlightAware ADS-B
Thu 12:12:27 AM 45.7110 -64.9570 48° Northeast 486 559 37,000  Level FlightAware ADS-B
Thu 12:13:12 AM 45.7800 -64.8450 49° Northeast 487 560 37,000  Level FlightAware ADS-B
Thu 12:13:52 AM 45.8390 -64.7490 49° Northeast 488 562 37,000  Level FlightAware ADS-B
Thu 12:14:37 AM 45.9050 -64.6430 48° Northeast 488 562 37,000  Level FlightAware ADS-B
Thu 12:15:12 AM 45.9520 -64.5670 48° Northeast 489 563 37,000  Level FlightAware ADS-B
Thu 12:15:52 AM 46.0030 -64.4850 48° Northeast 489 563 37,000  Level FlightAware ADS-B
Thu 12:16:37 AM 46.0840 -64.3490 49° Northeast 488 562 37,000  Level FlightAware ADS-B
Thu 12:17:27 AM 46.1580 -64.2280 49° Northeast 489 563 37,000  Level FlightAware ADS-B
Thu 12:18:32 AM 46.2460 -64.0810 49° Northeast 488 562 37,000  Level FlightAware ADS-B
Thu 12:19:07 AM 46.3020 -63.9880 49° Northeast 486 559 37,000  Level FlightAware ADS-B
Thu 12:19:52 AM 46.3630 -63.8860 49° Northeast 486 559 37,000  Level FlightAware ADS-B
Thu 12:20:32 AM 46.4130 -63.8020 49° Northeast 486 559 37,000  Level FlightAware ADS-B
Thu 12:21:22 AM 46.4760 -63.6980 49° Northeast 486 559 37,000  Level FlightAware ADS-B
Thu 12:21:52 AM 46.5140 -63.6350 49° Northeast 486 559 37,000  Level FlightAware ADS-B
Thu 12:22:32 AM 46.5640 -63.5510 49° Northeast 486 559 37,000  Level FlightAware ADS-B
Thu 12:23:12 AM 46.6140 -63.4670 49° Northeast 486 559 37,000  Level FlightAware ADS-B
Thu 12:24:02 AM 46.6770 -63.3620 49° Northeast 486 559 37,000  Level FlightAware ADS-B
Thu 12:24:42 AM 46.7270 -63.2780 49° Northeast 486 559 37,000  Level FlightAware ADS-B
Thu 12:25:22 AM 46.7770 -63.1930 49° Northeast 486 559 37,000  Level FlightAware ADS-B
Thu 12:26:02 AM 46.8270 -63.1090 49° Northeast 486 559 37,000  Level FlightAware ADS-B
Thu 12:26:42 AM 46.8770 -63.0250 49° Northeast 486 559 37,000  Level FlightAware ADS-B
Thu 12:27:32 AM 46.9400 -62.9190 49° Northeast 486 559 37,000  Level FlightAware ADS-B
Thu 12:28:12 AM 46.9900 -62.8350 49° Northeast 486 559 37,000  Level FlightAware ADS-B
Thu 12:28:52 AM 47.0400 -62.7500 49° Northeast 486 559 37,000  Level FlightAware ADS-B
Thu 12:33:07 AM 47.5200 -61.8770 51° Northeast 483 556 37,000  Level FlightAware ADS-B
Thu 12:33:42 AM 47.5640 -61.7990 50° Northeast 483 556 37,000  Level FlightAware ADS-B
Thu 12:34:42 AM 47.6520 -61.6390 51° Northeast 486 559 37,000  Level FlightAware ADS-B
Thu 12:35:22 AM 47.7080 -61.5380 50° Northeast 486 559 37,000  Level FlightAware ADS-B
Thu 12:36:17 AM 47.7840 -61.3960 51° Northeast 484 557 37,000  Level FlightAware ADS-B
Thu 12:36:57 AM 47.8320 -61.3080 51° Northeast 484 557 37,000  Level FlightAware ADS-B
Thu 12:37:47 AM 47.8920 -61.1980 51° Northeast 484 557 37,000  Level FlightAware ADS-B
Thu 12:38:27 AM 47.9400 -61.1100 51° Northeast 484 557 37,000  Level FlightAware ADS-B
Thu 12:39:07 AM 47.9880 -61.0210 51° Northeast 484 557 37,000  Level FlightAware ADS-B
Thu 12:39:47 AM 48.0360 -60.9330 51° Northeast 484 557 37,000  Level FlightAware ADS-B
Thu 12:40:27 AM 48.0840 -60.8440 51° Northeast 484 557 37,000  Level FlightAware ADS-B
Thu 12:41:17 AM 48.1440 -60.7330 51° Northeast 484 557 37,000  Level FlightAware ADS-B
Thu 12:41:57 AM 48.1920 -60.6450 51° Northeast 484 557 37,000  Level FlightAware ADS-B
Thu 12:42:37 AM 48.2400 -60.5560 51° Northeast 484 557 37,000  Level FlightAware ADS-B
Thu 12:43:17 AM 48.2870 -60.4670 52° Northeast 484 557 37,000  Level FlightAware ADS-B
Thu 12:43:57 AM 48.3350 -60.3780 51° Northeast 484 557 37,000  Level FlightAware ADS-B
Thu 12:44:47 AM 48.3950 -60.2670 51° Northeast 484 557 37,000  Level FlightAware ADS-B
Thu 12:45:27 AM 48.4430 -60.1780 51° Northeast 484 557 37,000  Level FlightAware ADS-B
Thu 12:46:22 AM 48.6190 -59.8210 53° Northeast 475 547 37,000  Level FlightAware ADS-B
Thu 12:47:07 AM 48.6790 -59.7050 52° Northeast 475 547 37,000  Level FlightAware ADS-B
Thu 12:47:47 AM 48.7350 -59.5940 53° Northeast 477 549 37,000  Level FlightAware ADS-B
Thu 12:48:22 AM 48.7800 -59.5070 52° Northeast 477 549 37,000  Level FlightAware ADS-B
Thu 12:49:12 AM 48.8430 -59.3820 53° Northeast 477 549 37,000  Level FlightAware ADS-B
Thu 12:49:47 AM 48.8880 -59.2940 52° Northeast 477 549 37,000  Level FlightAware ADS-B
Thu 12:50:37 AM 48.9450 -59.1820 52° Northeast 477 549 37,000  Level FlightAware ADS-B
Thu 12:51:12 AM 49.0060 -59.0570 53° Northeast 476 548 37,000  Level FlightAware ADS-B
Thu 12:52:02 AM 49.0760 -58.9170 53° Northeast 475 547 37,000  Level FlightAware ADS-B
Thu 12:52:42 AM 49.1280 -58.8120 53° Northeast 474 545 37,000  Level FlightAware ADS-B
Thu 12:53:22 AM 49.1820 -58.7030 53° Northeast 475 547 37,000  Level FlightAware ADS-B
Thu 12:54:02 AM 49.2330 -58.5990 53° Northeast 476 548 37,000  Level FlightAware ADS-B
Thu 12:54:47 AM 49.2910 -58.4810 53° Northeast 477 549 37,000  Level FlightAware ADS-B
Thu 12:55:27 AM 49.3470 -58.3650 53° Northeast 478 550 37,000  Level FlightAware ADS-B
Thu 12:56:12 AM 49.4040 -58.2490 53° Northeast 477 549 37,000  Level FlightAware ADS-B
Thu 12:56:52 AM 49.4520 -58.1490 54° Northeast 476 548 37,000  Level FlightAware ADS-B
Thu 12:57:37 AM 49.5150 -58.0170 54° Northeast 477 549 37,000 71 Level FlightAware ADS-B
Thu 12:58:17 AM 49.5580 -57.8970 61° Northeast 478 550 37,100 375 Climbing FlightAware ADS-B
Thu 12:58:57 AM 49.6020 -57.7750 61° Northeast 476 548 37,500 494 Climbing FlightAware ADS-B
Thu 12:59:42 AM 49.6490 -57.6450 61° Northeast 477 549 37,800 333 Climbing FlightAware ADS-B
Thu 01:00:27 AM 49.6980 -57.5080 61° Northeast 481 554 38,000 141 Climbing FlightAware ADS-B
Thu 01:01:07 AM 49.7400 -57.3890 61° Northeast 482 555 38,000  Level FlightAware ADS-B
Thu 01:01:52 AM 49.7880 -57.2520 61° Northeast 485 558 38,000  Level FlightAware ADS-B
Thu 01:02:32 AM 49.8300 -57.1320 61° Northeast 483 556 38,000  Level FlightAware ADS-B
Thu 01:03:12 AM 49.8720 -57.0120 61° Northeast 484 557 38,000  Level FlightAware ADS-B
Thu 01:03:57 AM 49.9220 -56.8700 61° Northeast 485 558 38,000  Level FlightAware ADS-B
Thu 01:04:37 AM 49.9630 -56.7490 62° Northeast 486 559 38,000  Level FlightAware ADS-B
Thu 01:05:22 AM 50.0110 -56.6110 62° Northeast 488 562 38,000  Level FlightAware ADS-B
Thu 01:06:02 AM 50.0530 -56.4890 62° Northeast 488 562 38,000  Level FlightAware ADS-B
Thu 01:06:47 AM 50.0990 -56.3510 62° Northeast 489 563 38,000  Level FlightAware ADS-B
Thu 01:07:27 AM 50.1430 -56.2220 62° Northeast 488 562 38,000  Level FlightAware ADS-B
Thu 01:08:07 AM 50.1840 -56.1020 62° Northeast 488 562 38,000  Level FlightAware ADS-B
Thu 01:08:52 AM 50.2320 -55.9570 63° Northeast 488 562 38,000  Level FlightAware ADS-B
Thu 01:09:32 AM 50.2730 -55.8340 62° Northeast 486 559 38,000  Level FlightAware ADS-B
Thu 01:10:12 AM 50.3160 -55.7060 62° Northeast 486 559 38,000  Level FlightAware ADS-B
Thu 01:10:57 AM 50.3600 -55.5730 63° Northeast 483 556 38,000  Level FlightAware ADS-B
Thu 01:11:37 AM 50.4020 -55.4450 63° Northeast 484 557 38,000  Level FlightAware ADS-B
Thu 01:12:22 AM 50.4480 -55.3030 63° Northeast 483 556 38,000  Level FlightAware ADS-B
Thu 01:13:02 AM 50.4880 -55.1800 63° Northeast 480 552 38,000  Level FlightAware ADS-B
Thu 01:13:42 AM 50.5280 -55.0560 63° Northeast 479 551 38,000  Level FlightAware ADS-B
Thu 01:14:27 AM 50.5720 -54.9200 63° Northeast 480 552 38,000  Level FlightAware ADS-B
Thu 01:15:07 AM 50.6110 -54.7970 63° Northeast 482 555 38,000  Level FlightAware ADS-B
Thu 01:15:47 AM 50.6530 -54.6660 63° Northeast 483 556 38,000  Level FlightAware ADS-B
Thu 01:16:32 AM 50.6940 -54.5380 63° Northeast 482 555 38,000  Level FlightAware ADS-B
Thu 01:17:12 AM 50.7330 -54.4120 64° Northeast 482 555 38,000  Level FlightAware ADS-B
Thu 01:17:57 AM 50.7810 -54.2600 63° Northeast 480 552 38,000  Level FlightAware ADS-B
Thu 01:18:37 AM 50.8210 -54.1310 64° Northeast 478 550 38,000  Level FlightAware ADS-B
Thu 01:19:22 AM 50.8630 -53.9950 64° Northeast 478 550 38,000  Level FlightAware ADS-B
Thu 01:20:02 AM 50.9020 -53.8680 64° Northeast 480 552 38,000  Level FlightAware ADS-B
Thu 01:20:42 AM 50.9390 -53.7500 64° Northeast 480 552 38,000  Level FlightAware ADS-B
Thu 01:21:22 AM 50.9770 -53.6240 64° Northeast 479 551 38,000  Level FlightAware ADS-B
Thu 01:22:07 AM 51.0220 -53.4760 64° Northeast 479 551 38,000  Level FlightAware ADS-B
Thu 01:22:47 AM 51.0600 -53.3520 64° Northeast 479 551 38,000  Level FlightAware ADS-B
Thu 01:23:27 AM 51.0950 -53.2350 64° Northeast 479 551 38,000  Level FlightAware ADS-B
Thu 01:24:07 AM 51.1280 -53.1270 64° Northeast 479 551 38,000  Level FlightAware ADS-B
Thu 01:24:57 AM 51.1690 -52.9920 64° Northeast 479 551 38,000  Level FlightAware ADS-B
Thu 01:25:13 AM 51.1833 -52.8167 64° Northeast 480 552 38,000  Level Gander Center
Thu 01:26:13 AM 51.2500 -52.6167 62° Northeast 480 552 38,000  Level Gander Center
Thu 01:27:13 AM 51.3000 -52.4333 66° East 480 552 38,000  Level Gander Center
Thu 01:28:13 AM 51.3667 -52.2500 60° Northeast 480 552 38,000  Level Gander Center
Thu 01:29:13 AM 51.4167 -52.0500 68° East 490 564 38,000  Level Gander Center
Thu 01:30:13 AM 51.4667 -51.8500 68° East 480 552 38,000  Level Gander Center
Thu 01:31:13 AM 51.5167 -51.6500 68° East 480 552 38,000  Level Gander Center
Thu 01:32:13 AM 51.5667 -51.4500 68° East 480 552 38,000  Level Gander Center
Thu 01:33:13 AM 51.6167 -51.2667 66° East 480 552 38,000  Level Gander Center
Thu 01:34:13 AM 51.6833 -51.0333 65° Northeast 480 552 38,000  Level Gander Center
Thu 01:35:13 AM 51.7333 -50.8667 64° Northeast 480 552 38,000  Level Gander Center
Thu 01:36:13 AM 51.7833 -50.6667 68° East 480 552 38,000  Level Gander Center
Thu 01:37:13 AM 51.8333 -50.4667 68° East 480 552 38,000  Level Gander Center
Thu 01:38:13 AM 51.9000 -50.2500 63° Northeast 480 552 38,000  Level Gander Center
Thu 01:39:13 AM 51.9500 -50.0500 68° East 480 552 38,000 Level Gander Center
Thu 01:41:00 AM 52.0356 -49.7530 77° East  Level FlightAware Approximate
Thu 01:48:00 AM 52.2362 -48.2785 77° East  Level FlightAware Approximate
Thu 01:49:00 AM 52.2634 -48.0668 78° East  Level FlightAware Approximate
Thu 01:50:00 AM 52.2902 -47.8549 78° East  Level FlightAware Approximate
Thu 01:51:00 AM 52.3166 -47.6427 78° East  Level FlightAware Approximate
Thu 01:52:00 AM 52.3426 -47.4302 79° East  Level FlightAware Approximate
Thu 01:53:00 AM 52.3682 -47.2175 79° East  Level FlightAware Approximate
Thu 01:54:00 AM 52.3935 -47.0045 79° East  Level FlightAware Approximate
Thu 01:55:00 AM 52.4183 -46.7913 79° East  Level FlightAware Approximate
Thu 01:56:00 AM 52.4428 -46.5779 79° East  Level FlightAware Approximate
Thu 01:57:00 AM 52.4669 -46.3642 79° East  Level FlightAware Approximate
Thu 01:58:00 AM 52.4906 -46.1503 80° East  Level FlightAware Approximate
Thu 01:59:00 AM 52.5140 -45.9362 80° East  Level FlightAware Approximate
Thu 02:00:00 AM 52.5369 -45.7218 80° East  Level FlightAware Approximate
Thu 02:01:00 AM 52.5594 -45.5073 80° East  Level FlightAware Approximate
Thu 02:02:00 AM 52.5816 -45.2924 80° East  Level FlightAware Approximate
Thu 02:03:00 AM 52.6034 -45.0774 80° East  Level FlightAware Approximate
Thu 02:04:00 AM 52.6248 -44.8622 81° East  Level FlightAware Approximate
Thu 02:05:00 AM 52.6458 -44.6468 81° East  Level FlightAware Approximate
Thu 02:06:00 AM 52.6664 -44.4311 81° East  Level FlightAware Approximate
Thu 02:07:00 AM 52.6866 -44.2153 81° East  Level FlightAware Approximate
Thu 02:08:00 AM 52.7064 -43.9992 81° East  Level FlightAware Approximate
Thu 02:09:00 AM 52.7258 -43.7830 81° East  Level FlightAware Approximate
Thu 02:10:00 AM 52.7449 -43.5666 82° East  Level FlightAware Approximate
Thu 02:11:00 AM 52.7635 -43.3500 82° East  Level FlightAware Approximate
Thu 02:12:00 AM 52.7818 -43.1332 82° East  Level FlightAware Approximate
Thu 02:13:00 AM 52.7996 -42.9162 82° East  Level FlightAware Approximate
Thu 02:14:00 AM 52.8171 -42.6990 82° East  Level FlightAware Approximate
Thu 02:15:00 AM 52.8341 -42.4817 83° East  Level FlightAware Approximate
Thu 02:16:00 AM 52.8508 -42.2642 83° East  Level FlightAware Approximate
Thu 02:17:00 AM 52.8671 -42.0466 83° East  Level FlightAware Approximate
Thu 02:18:00 AM 52.8829 -41.8287 83° East  Level FlightAware Approximate
Thu 02:19:00 AM 52.8984 -41.6107 83° East  Level FlightAware Approximate
Thu 02:20:00 AM 52.9134 -41.3926 83° East  Level FlightAware Approximate
Thu 02:21:00 AM 52.9281 -41.1743 84° East  Level FlightAware Approximate
Thu 02:22:00 AM 52.9424 -40.9559 84° East  Level FlightAware Approximate
Thu 02:23:00 AM 52.9562 -40.7373 84° East  Level FlightAware Approximate
Thu 02:24:00 AM 52.9697 -40.5186 84° East  Level FlightAware Approximate
Thu 02:25:00 AM 52.9828 -40.2998 84° East  Level FlightAware Approximate
Thu 02:26:00 AM 52.9954 -40.0808 84° East  Level FlightAware Approximate
Thu 02:27:00 AM 53.0057 -39.8615 86° East  Level FlightAware Approximate
Thu 02:28:00 AM 53.0145 -39.6419 86° East  Level FlightAware Approximate
Thu 02:29:00 AM 53.0229 -39.4222 86° East  Level FlightAware Approximate
Thu 02:30:00 AM 53.0308 -39.2024 86° East  Level FlightAware Approximate
Thu 02:31:00 AM 53.0384 -38.9826 87° East  Level FlightAware Approximate
Thu 02:32:00 AM 53.0456 -38.7626 87° East  Level FlightAware Approximate
Thu 02:33:00 AM 53.0523 -38.5426 87° East  Level FlightAware Approximate
Thu 02:34:00 AM 53.0586 -38.3226 87° East  Level FlightAware Approximate
Thu 02:35:00 AM 53.0646 -38.1024 87° East  Level FlightAware Approximate
Thu 02:36:00 AM 53.0701 -37.8822 88° East  Level FlightAware Approximate
Thu 02:37:00 AM 53.0752 -37.6620 88° East  Level FlightAware Approximate
Thu 02:38:00 AM 53.0799 -37.4417 88° East  Level FlightAware Approximate
Thu 02:39:00 AM 53.0843 -37.2214 88° East  Level FlightAware Approximate
Thu 02:40:00 AM 53.0882 -37.0010 88° East  Level FlightAware Approximate
Thu 02:41:00 AM 53.0916 -36.7806 88° East  Level FlightAware Approximate
Thu 02:42:00 AM 53.0947 -36.5601 89° East  Level FlightAware Approximate
Thu 02:43:00 AM 53.0974 -36.3396 89° East  Level FlightAware Approximate
Thu 02:44:00 AM 53.0997 -36.1191 89° East  Level FlightAware Approximate
Thu 02:45:00 AM 53.1015 -35.8986 89° East  Level FlightAware Approximate
Thu 02:46:00 AM 53.1030 -35.6781 89° East  Level FlightAware Approximate
Thu 02:47:00 AM 53.1040 -35.4575 89° East  Level FlightAware Approximate
Thu 02:48:00 AM 53.1047 -35.2369 90° East  Level FlightAware Approximate
Thu 02:49:00 AM 53.1049 -35.0164 90° East  Level FlightAware Approximate
Thu 02:50:00 AM 53.1048 -34.7958 90° East  Level FlightAware Approximate
Thu 02:51:00 AM 53.1042 -34.5752 90° East  Level FlightAware Approximate
Thu 02:52:00 AM 53.1032 -34.3547 90° East  Level FlightAware Approximate
Thu 02:53:00 AM 53.1018 -34.1341 91° East  Level FlightAware Approximate
Thu 02:54:00 AM 53.1000 -33.9136 91° East  Level FlightAware Approximate
Thu 02:55:00 AM 53.0978 -33.6931 91° East  Level FlightAware Approximate
Thu 02:56:00 AM 53.0951 -33.4726 91° East  Level FlightAware Approximate
Thu 02:57:00 AM 53.0921 -33.2521 91° East  Level FlightAware Approximate
Thu 02:58:00 AM 53.0887 -33.0317 91° East  Level FlightAware Approximate
Thu 02:59:00 AM 53.0849 -32.8113 92° East  Level FlightAware Approximate
Thu 03:00:00 AM 53.0806 -32.5910 92° East  Level FlightAware Approximate
Thu 03:01:00 AM 53.0760 -32.3707 92° East  Level FlightAware Approximate
Thu 03:02:00 AM 53.0709 -32.1504 92° East  Level FlightAware Approximate
Thu 03:03:00 AM 53.0654 -31.9302 92° East  Level FlightAware Approximate
Thu 03:04:00 AM 53.0596 -31.7101 92° East  Level FlightAware Approximate
Thu 03:05:00 AM 53.0533 -31.4900 93° East  Level FlightAware Approximate
Thu 03:06:00 AM 53.0466 -31.2700 93° East  Level FlightAware Approximate
Thu 03:07:00 AM 53.0395 -31.0501 93° East  Level FlightAware Approximate
Thu 03:08:00 AM 53.0320 -30.8302 93° East  Level FlightAware Approximate
Thu 03:09:00 AM 53.0241 -30.6104 93° East  Level FlightAware Approximate
Thu 03:10:00 AM 53.0158 -30.3907 94° East  Level FlightAware Approximate
Thu 03:11:00 AM 53.0071 -30.1711 94° East  Level FlightAware Approximate
Thu 03:12:00 AM 52.9973 -29.9517 95° East  Level FlightAware Approximate
Thu 03:13:00 AM 52.9847 -29.7327 95° East  Level FlightAware Approximate
Thu 03:14:00 AM 52.9717 -29.5138 96° East  Level FlightAware Approximate
Thu 03:15:00 AM 52.9583 -29.2951 96° East  Level FlightAware Approximate
Thu 03:16:00 AM 52.9445 -29.0765 96° East  Level FlightAware Approximate
Thu 03:17:00 AM 52.9302 -28.8580 96° East  Level FlightAware Approximate
Thu 03:18:00 AM 52.9156 -28.6397 96° East  Level FlightAware Approximate
Thu 03:19:00 AM 52.9006 -28.4216 96° East  Level FlightAware Approximate
Thu 03:20:00 AM 52.8852 -28.2036 97° East  Level FlightAware Approximate
Thu 03:21:00 AM 52.8694 -27.9858 97° East  Level FlightAware Approximate
Thu 03:22:00 AM 52.8532 -27.7681 97° East  Level FlightAware Approximate
Thu 03:23:00 AM 52.8366 -27.5506 97° East  Level FlightAware Approximate
Thu 03:24:00 AM 52.8196 -27.3332 97° East  Level FlightAware Approximate
Thu 03:25:00 AM 52.8022 -27.1160 97° East  Level FlightAware Approximate
Thu 03:26:00 AM 52.7844 -26.8990 98° East  Level FlightAware Approximate
Thu 03:27:00 AM 52.7662 -26.6822 98° East  Level FlightAware Approximate
Thu 03:28:00 AM 52.7477 -26.4656 98° East  Level FlightAware Approximate
Thu 03:29:00 AM 52.7287 -26.2491 98° East  Level FlightAware Approximate
Thu 03:30:00 AM 52.7093 -26.0329 98° East  Level FlightAware Approximate
Thu 03:31:00 AM 52.6895 -25.8168 98° East  Level FlightAware Approximate
Thu 03:32:00 AM 52.6694 -25.6009 99° East  Level FlightAware Approximate
Thu 03:33:00 AM 52.6488 -25.3853 99° East  Level FlightAware Approximate
Thu 03:34:00 AM 52.6279 -25.1698 99° East  Level FlightAware Approximate
Thu 03:35:00 AM 52.6066 -24.9545 99° East  Level FlightAware Approximate
Thu 03:36:00 AM 52.5849 -24.7395 99° East  Level FlightAware Approximate
Thu 03:37:00 AM 52.5627 -24.5246 100° East  Level FlightAware Approximate
Thu 03:38:00 AM 52.5402 -24.3100 100° East  Level FlightAware Approximate
Thu 03:39:00 AM 52.5174 -24.0956 100° East  Level FlightAware Approximate
Thu 03:40:00 AM 52.4941 -23.8815 100° East  Level FlightAware Approximate
Thu 03:41:00 AM 52.4704 -23.6675 100° East  Level FlightAware Approximate
Thu 03:42:00 AM 52.4464 -23.4538 100° East  Level FlightAware Approximate
Thu 03:43:00 AM 52.4220 -23.2404 101° East  Level FlightAware Approximate
Thu 03:44:00 AM 52.3971 -23.0271 101° East  Level FlightAware Approximate
Thu 03:45:00 AM 52.3720 -22.8141 101° East  Level FlightAware Approximate
Thu 03:46:00 AM 52.3464 -22.6014 101° East  Level FlightAware Approximate
Thu 03:47:00 AM 52.3204 -22.3889 101° East  Level FlightAware Approximate
Thu 03:48:00 AM 52.2941 -22.1766 101° East  Level FlightAware Approximate
Thu 03:49:00 AM 52.2674 -21.9646 102° East  Level FlightAware Approximate
Thu 03:50:00 AM 52.2403 -21.7529 102° East  Level FlightAware Approximate
Thu 03:51:00 AM 52.2128 -21.5414 102° East  Level FlightAware Approximate
Thu 03:52:00 AM 52.1849 -21.3302 102° East  Level FlightAware Approximate
Thu 03:53:00 AM 52.1567 -21.1192 102° East  Level FlightAware Approximate
Thu 03:54:00 AM 52.1281 -20.9086 102° East  Level FlightAware Approximate
Thu 03:55:00 AM 52.0991 -20.6982 103° East  Level FlightAware Approximate
Thu 03:56:00 AM 52.0698 -20.4880 103° East  Level FlightAware Approximate
Thu 03:57:00 AM 52.0400 -20.2782 103° East  Level FlightAware Approximate
Thu 03:58:00 AM 52.0099 -20.0686 103° East  Level FlightAware Approximate
Thu 03:59:00 AM 52.0054 -19.8556 86° East  Level FlightAware Approximate
Thu 04:00:00 AM 52.0131 -19.6409 87° East  Level FlightAware Approximate
Thu 04:01:00 AM 52.0204 -19.4260 87° East  Level FlightAware Approximate
Thu 04:02:00 AM 52.0272 -19.2111 87° East  Level FlightAware Approximate
Thu 04:03:00 AM 52.0338 -18.9961 87° East  Level FlightAware Approximate
Thu 04:04:00 AM 52.0399 -18.7811 87° East  Level FlightAware Approximate
Thu 04:05:00 AM 52.0456 -18.5660 87° East  Level FlightAware Approximate
Thu 04:06:00 AM 52.0509 -18.3509 88° East  Level FlightAware Approximate
Thu 04:07:00 AM 52.0559 -18.1357 88° East  Level FlightAware Approximate
Thu 04:08:00 AM 52.0604 -17.9204 88° East  Level FlightAware Approximate
Thu 04:09:00 AM 52.0646 -17.7052 88° East  Level FlightAware Approximate
Thu 04:10:00 AM 52.0683 -17.4898 88° East  Level FlightAware Approximate
Thu 04:11:00 AM 52.0717 -17.2745 88° East  Level FlightAware Approximate
Thu 04:12:00 AM 52.0747 -17.0591 89° East  Level FlightAware Approximate
Thu 04:13:00 AM 52.0773 -16.8437 89° East  Level FlightAware Approximate
Thu 04:14:00 AM 52.0795 -16.6283 89° East  Level FlightAware Approximate
Thu 04:15:00 AM 52.0813 -16.4128 89° East  Level FlightAware Approximate
Thu 04:16:00 AM 52.0827 -16.1973 89° East  Level FlightAware Approximate
Thu 04:17:00 AM 52.0837 -15.9819 89° East  Level FlightAware Approximate
Thu 04:18:00 AM 52.0843 -15.7664 90° East  Level FlightAware Approximate
Thu 04:19:00 AM 52.0845 -15.5509 90° East  Level FlightAware Approximate
Thu 04:20:00 AM 52.0844 -15.3354 90° East  Level FlightAware Approximate
Thu 04:21:00 AM 52.0838 -15.1199 90° East  Level FlightAware Approximate
Thu 04:22:00 AM 52.0836 -14.9044 90° East  Level FlightAware Approximate
Thu 04:23:00 AM 52.0840 -14.6889 90° East  Level FlightAware Approximate
Thu 04:24:00 AM 52.0840 -14.4734 90° East  Level FlightAware Approximate
Thu 04:25:00 AM 52.0836 -14.2579 90° East  Level FlightAware Approximate
Thu 04:26:00 AM 52.0827 -14.0424 90° East  Level FlightAware Approximate
Thu 04:27:00 AM 52.0816 -13.8270 90° East  Level FlightAware Approximate
Thu 04:28:00 AM 52.0800 -13.6115 91° East  Level FlightAware Approximate
Thu 04:29:00 AM 52.0780 -13.3961 91° East  Level FlightAware Approximate
Thu 04:29:42 AM 51.9950 -12.1890 91° East 501 577 39,000  Level FlightAware ADS-B
Thu 04:30:00 AM 52.0756 -13.1806 91° East  Level FlightAware Approximate
Thu 04:30:27 AM 51.9920 -12.0230 92° East 501 577 39,000  Level FlightAware ADS-B
Thu 04:31:12 AM 51.9900 -11.8510 91° East 501 577 39,000  Level FlightAware ADS-B
Thu 04:31:52 AM 51.9870 -11.7000 92° East 501 577 39,000  Level FlightAware ADS-B
Thu 04:32:42 AM 51.9840 -11.5240 92° East 501 577 39,000  Level FlightAware ADS-B
Thu 04:33:22 AM 51.9810 -11.3760 92° East 501 577 39,000  Level FlightAware ADS-B
Thu 04:33:57 AM 51.9780 -11.2470 92° East 501 577 39,000  Level FlightAware ADS-B
Thu 04:34:47 AM 51.9740 -11.0580 92° East 501 577 39,000  Level FlightAware ADS-B
Thu 04:35:27 AM 51.9700 -10.9020 92° East 501 577 39,000  Level FlightAware ADS-B
Thu 04:36:12 AM 51.9650 -10.7280 93° East 501 577 39,000  Level FlightAware ADS-B
Thu 04:36:52 AM 51.9610 -10.5750 92° East 502 578 39,000  Level FlightAware ADS-B
Thu 04:37:32 AM 51.9570 -10.4310 93° East 503 579 39,000  Level FlightAware ADS-B
Thu 04:38:17 AM 51.9520 -10.2630 93° East 503 579 39,000  Level FlightAware ADS-B
Thu 04:38:57 AM 51.9480 -10.1240 93° East 503 579 39,000  Level FlightAware ADS-B
Thu 04:39:42 AM 51.9420 -9.9420 93° East 502 578 39,000  Level FlightAware ADS-B
Thu 04:40:22 AM 51.9370 -9.7940 93° East 502 578 39,000  Level FlightAware ADS-B
Thu 04:41:02 AM 51.9320 -9.6380 93° East 504 580 39,000  Level FlightAware ADS-B
Thu 04:41:47 AM 51.9260 -9.4700 93° East 504 580 39,000  Level FlightAware ADS-B
Thu 04:42:27 AM 51.9200 -9.3180 94° East 506 582 39,000  Level FlightAware ADS-B
Thu 04:43:12 AM 51.9130 -9.1500 94° East 506 582 39,000  Level FlightAware ADS-B
Thu 04:43:52 AM 51.9070 -8.9970 94° East 507 583 39,000 -1,500 Level FlightAware ADS-B
Thu 04:44:12 AM 51.9040 -8.9086 94° East 476 548 37,500 -2,368 Descending FlightAware UK
Thu 04:44:30 AM 51.9011 -8.8406 94° East 476 548 37,500 4,500 Level FlightAware UK
Thu 04:44:32 AM 51.9010 -8.8470 94° East 506 582 39,000 -667 Climbing FlightAware ADS-B
Thu 04:44:48 AM 51.8982 -8.7728 94° East 474 545 37,300 -3,176 Descending FlightAware UK
Thu 04:45:06 AM 51.8954 -8.7049 94° East 474 545 37,200 2,690 Descending FlightAware UK
Thu 04:45:17 AM 51.8940 -8.6760 94° East 506 582 38,600 -600 Climbing FlightAware ADS-B
Thu 04:45:36 AM 51.8903 -8.5918 94° East 472 543 36,900 -3,081 Descending FlightAware UK
Thu 04:45:54 AM 51.8872 -8.5241 94° East 472 543 36,700 4,000 Descending FlightAware UK
Thu 04:45:57 AM 51.8870 -8.5270 94° East 506 582 38,300 -667 Climbing FlightAware ADS-B
Thu 04:46:12 AM 51.8841 -8.4563 94° East 472 543 36,500 -3,636 Descending FlightAware UK
Thu 04:46:30 AM 51.8810 -8.3884 94° East 472 543 36,300 4,200 Descending FlightAware UK
Thu 04:46:32 AM 51.8820 -8.4020 94° East 508 585 37,900 -333 Climbing FlightAware ADS-B
Thu 04:46:48 AM 51.8778 -8.3205 94° East 472 543 36,200 -3,000 Descending FlightAware UK
Thu 04:47:12 AM 51.8735 -8.2291 94° East 472 543 35,900 2,118 Descending FlightAware UK
Thu 04:47:22 AM 51.8720 -8.2090 94° East 507 583 37,400 -400 Climbing FlightAware ADS-B
Thu 04:47:42 AM 51.8684 -8.1157 94° East 472 543 35,700 -600 Descending FlightAware UK
Thu 04:48:02 AM 51.8650 -8.0550 94° East 508 585 37,000 -667 Climbing FlightAware ADS-B
Thu 04:48:18 AM 51.8615 -7.9793 94° East 472 543 35,300 -3,353 Descending FlightAware UK
Thu 04:48:36 AM 51.8577 -7.9112 95° East 472 543 35,100 3,250 Descending FlightAware UK
Thu 04:48:42 AM 51.8570 -7.9000 95° East 508 585 36,600 -500 Climbing FlightAware ADS-B
Thu 04:49:00 AM 51.8525 -7.8205 95° East 472 543 34,900 -3,167 Descending FlightAware UK
Thu 04:49:18 AM 51.8489 -7.7526 95° East 470 541 34,700 2,889 Descending FlightAware UK
Thu 04:49:27 AM 51.8490 -7.7360 95° East 499 574 36,200 -500 Climbing FlightAware ADS-B
Thu 04:49:42 AM 51.8443 -7.6631 95° East 466 536 34,500 -3,455 Descending FlightAware UK
Thu 04:50:00 AM 51.8411 -7.5976 95° East 462 532 34,300 4,200 Descending FlightAware UK
Thu 04:50:02 AM 51.8420 -7.6010 95° East 496 571 35,900 -667 Climbing FlightAware ADS-B
Thu 04:50:18 AM 51.8375 -7.5317 95° East 462 532 34,100 -3,529 Descending FlightAware UK
Thu 04:50:36 AM 51.8340 -7.4652 95° East 462 532 33,900 2,294 Descending FlightAware UK
Thu 04:50:52 AM 51.8320 -7.4190 95° East 496 571 35,400 -500 Climbing FlightAware ADS-B
Thu 04:51:12 AM 51.8274 -7.3320 95° East 456 525 33,600 -600 Descending FlightAware UK
Thu 04:51:32 AM 51.8240 -7.2680 95° East 494 568 35,000 -500 Climbing FlightAware ADS-B
Thu 04:51:48 AM 51.8199 -7.1998 95° East 456 525 33,300 -3,353 Descending FlightAware UK
Thu 04:52:06 AM 51.8162 -7.1340 95° East 452 520 33,100 2,483 Descending FlightAware UK
Thu 04:52:17 AM 51.8140 -7.1040 95° East 489 563 34,500 -600 Climbing FlightAware ADS-B
Thu 04:52:36 AM 51.8099 -7.0244 95° East 448 516 32,800 -3,081 Descending FlightAware UK
Thu 04:52:54 AM 51.8060 -6.9595 95° East 446 513 32,600 3,714 Descending FlightAware UK
Thu 04:52:57 AM 51.8060 -6.9620 95° East 485 558 34,100 -667 Climbing FlightAware ADS-B
Thu 04:53:12 AM 51.8020 -6.8951 95° East 446 513 32,400 -3,273 Descending FlightAware UK
Thu 04:53:30 AM 51.7983 -6.8311 95° East 444 511 32,300 3,360 Descending FlightAware UK
Thu 04:53:37 AM 51.7980 -6.8180 95° East 481 554 33,800 -750 Climbing FlightAware ADS-B
Thu 04:53:54 AM 51.7934 -6.7459 95° East 442 509 32,000 -3,429 Descending FlightAware UK
Thu 04:54:12 AM 51.7896 -6.6821 95° East 440 506 31,800 2,786 Descending FlightAware UK
Thu 04:54:22 AM 51.7880 -6.6630 95° East 479 551 33,300 -600 Climbing FlightAware ADS-B
Thu 04:54:42 AM 51.7840 -6.5757 95° East 438 504 31,500 -2,842 Descending FlightAware UK
Thu 04:55:00 AM 51.7818 -6.5120 93° East 434 499 31,500 4,500 Level FlightAware UK
Thu 04:55:02 AM 51.7830 -6.5180 93° East 473 544 33,000  Climbing FlightAware ADS-B
Thu 04:55:24 AM 51.7793 -6.4275 93° East 434 499 31,500 -2,250 Descending FlightAware UK
Thu 04:55:42 AM 51.7772 -6.3643 93° East 434 499 31,500 3,913 Level FlightAware UK
Thu 04:55:47 AM 51.7770 -6.3550 93° East 472 543 33,000  Climbing FlightAware ADS-B
Thu 04:56:06 AM 51.7737 -6.2802 93° East 434 499 31,500 -2,432 Descending FlightAware UK
Thu 04:56:24 AM 51.7710 -6.2172 94° East 434 499 31,500 4,286 Level FlightAware UK
Thu 04:56:27 AM 51.7710 -6.2200 94° East 471 542 33,000  Climbing FlightAware ADS-B
Thu 04:56:42 AM 51.7683 -6.1542 94° East 434 499 31,500 -2,727 Descending FlightAware UK
Thu 04:57:00 AM 51.7656 -6.0913 94° East 432 497 31,500 3,000 Level FlightAware UK
Thu 04:57:12 AM 51.7640 -6.0590 94° East 474 545 33,000  Climbing FlightAware ADS-B
Thu 04:57:30 AM 51.7614 -5.9862 94° East 434 499 31,500 -2,500 Descending FlightAware UK
Thu 04:57:48 AM 51.7585 -5.9221 94° East 434 499 31,500 4,091 Level FlightAware UK
Thu 04:57:52 AM 51.7580 -5.9150 94° East 476 548 33,000  Climbing FlightAware ADS-B
Thu 04:58:12 AM 51.7546 -5.8375 94° East 436 502 31,500 -2,368 Descending FlightAware UK
Thu 04:58:30 AM 51.7516 -5.7737 94° East 436 502 31,500 3,600 Level FlightAware UK
Thu 04:58:37 AM 51.7510 -5.7590 94° East 477 549 33,000  Climbing FlightAware ADS-B
Thu 04:59:00 AM 51.7468 -5.6673 94° East 436 502 31,500  Descending FlightAware UK
Thu 04:59:17 AM 51.7440 -5.6200 94° East 477 549 33,000  Climbing FlightAware ADS-B
Thu 04:59:36 AM 51.7404 -5.5396 94° East 434 499 31,500  Descending FlightAware UK
Thu 04:59:57 AM 51.7370 -5.4790 94° East 475 547 33,000  Climbing FlightAware ADS-B
Thu 05:00:12 AM 51.7343 -5.4125 94° East 434 499 31,500  Descending FlightAware UK
Thu 05:00:42 AM 51.7300 -5.3250 94° East 475 547 33,000  Climbing FlightAware ADS-B
Thu 05:01:00 AM 51.7257 -5.2436 94° East 442 509 31,500 -2,500 Descending FlightAware UK
Thu 05:01:18 AM 51.7225 -5.1799 95° East 456 525 31,500 4,091 Level FlightAware UK
Thu 05:01:22 AM 51.7220 -5.1800 95° East 492 566 33,000  Climbing FlightAware ADS-B
Thu 05:01:54 AM 51.7121 -5.0449 95° East 472 543 31,500  Descending FlightAware UK
Thu 05:02:02 AM 51.7100 -5.0300 95° East 512 589 33,000  Climbing FlightAware ADS-B
Thu 05:02:18 AM 51.7036 -4.9544 95° East 474 545 31,500  Descending FlightAware UK
Thu 05:02:47 AM 51.6950 -4.8580 95° East 511 588 33,000  Climbing FlightAware ADS-B
Thu 05:03:06 AM 51.6880 -4.7728 95° East 476 548 31,500  Descending FlightAware UK
Thu 05:03:27 AM 51.6820 -4.7060 95° East 510 587 33,000  Climbing FlightAware ADS-B
Thu 05:03:42 AM 51.6764 -4.6372 95° East 470 541 31,500  Descending FlightAware UK
Thu 05:04:12 AM 51.6680 -4.5390 95° East 511 588 33,000 -333 Climbing FlightAware ADS-B
Thu 05:04:36 AM 51.6590 -4.4344 95° East 474 545 31,200 -600 Descending FlightAware UK
Thu 05:04:52 AM 51.6550 -4.3910 95° East 509 586 32,600 -1,000 Climbing FlightAware ADS-B
Thu 05:05:12 AM 51.6472 -4.2997 95° East 474 545 30,600 -1,050 Descending FlightAware UK
Thu 05:05:32 AM 51.6420 -4.2370 95° East 501 577 31,900 -811 Climbing FlightAware ADS-B
Thu 05:05:49 AM 51.6353 -4.1668 95° East 466 536 30,100 -1,067 Descending FlightAware UK
Thu 05:06:17 AM 51.6270 -4.0720 95° East 515 593 31,100 353 Climbing FlightAware ADS-B
Thu 05:06:57 AM 51.6130 -3.9240 99° East 498 573 30,500 -2,571 Descending FlightAware ADS-B
Thu 05:07:13 AM 51.6068 -3.8547 99° East 460 529 28,700 -900 Descending FlightAware UK
Thu 05:07:37 AM 51.6000 -3.7780 99° East 489 563 29,900 -1,000 Climbing FlightAware ADS-B
Thu 05:07:55 AM 51.5926 -3.7038 99° East 458 527 28,000 -3,833 Descending FlightAware UK
Thu 05:08:13 AM 51.5865 -3.6381 99° East 454 522 27,600 2,444 Descending FlightAware UK
Thu 05:08:22 AM 51.5850 -3.6210 99° East 483 556 29,100 -750 Climbing FlightAware ADS-B
Thu 05:08:37 AM 51.5786 -3.5550 99° East 434 499 27,300 -900 Descending FlightAware UK
Thu 05:09:02 AM 51.5720 -3.4820 99° East 455 524 28,500 -1,000 Climbing FlightAware ADS-B
Thu 05:09:19 AM 51.5652 -3.4142 99° East 416 479 26,600 -3,771 Descending FlightAware UK
Thu 05:09:37 AM 51.5594 -3.3546 99° East 418 481 26,300 2,357 Descending FlightAware UK
Thu 05:09:47 AM 51.5570 -3.3290 99° East 454 522 27,700 960 Climbing FlightAware ADS-B
Thu 05:10:27 AM 51.5440 -3.1970 99° East 454 522 27,100 -2,679 Descending FlightAware ADS-B
Thu 05:10:43 AM 51.5379 -3.1343 99° East 418 481 25,200 -1,067 Descending FlightAware UK
Thu 05:11:12 AM 51.5300 -3.0520 99° East 441 507 26,300 -1,000 Climbing FlightAware ADS-B
Thu 05:11:31 AM 51.5223 -2.9790 99° East 402 463 24,400 -900 Descending FlightAware UK
Thu 05:11:52 AM 51.5170 -2.9240 99° East 440 506 25,700 2,750 Climbing FlightAware ADS-B
Thu 05:11:55 AM 51.5152 -2.9075 100° East 441 507 25,500 -6,286 Descending FlightAware ADS-B
Thu 05:12:13 AM 51.5087 -2.8431 100° East 402 463 23,500 -1,579 Descending FlightAware UK
Thu 05:12:33 AM 51.5025 -2.7830 100° East 440 506 24,500 -1,500 Climbing FlightAware ADS-B
Thu 05:12:49 AM 51.4969 -2.7280 100° East 396 456 22,600 -1,459 Descending FlightAware UK
Thu 05:13:10 AM 51.4907 -2.6679 100° East 431 496 23,600 -1,667 Climbing FlightAware ADS-B
Thu 05:13:25 AM 51.4852 -2.6148 100° East 390 449 21,600 -1,688 Descending FlightAware UK
Thu 05:13:42 AM 51.4801 -2.5661 100° East 426 490 22,700 -1,500 Climbing FlightAware ADS-B
Thu 05:14:01 AM 51.4737 -2.5028 100° East 384 442 20,700 -1,355 Descending FlightAware UK
Thu 05:14:13 AM 51.4703 -2.4713 100° East 424 488 22,000 -1,600 Climbing FlightAware ADS-B
Thu 05:14:31 AM 51.4639 -2.4103 100° East 382 440 19,900 -1,579 Descending FlightAware UK
Thu 05:14:51 AM 51.4581 -2.3558 100° East 419 482 21,000 -1,500 Climbing FlightAware ADS-B
Thu 05:15:07 AM 51.4524 -2.3015 100° East 376 433 19,000 -1,688 Descending FlightAware UK
Thu 05:15:23 AM 51.4479 -2.2589 100° East 412 474 20,100 -1,622 Climbing FlightAware ADS-B
Thu 05:15:44 AM 51.4408 -2.1932 100° East 370 426 18,000 -1,548 Descending FlightAware UK
Thu 05:15:54 AM 51.4379 -2.1658 100° East 408 470 19,300 -1,600 Climbing FlightAware ADS-B
Thu 05:16:14 AM 51.4312 -2.1042 100° East 364 419 17,200 -1,688 Descending FlightAware UK
Thu 05:16:26 AM 51.4278 -2.0730 100° East 405 466 18,400 -1,600 Climbing FlightAware ADS-B
Thu 05:16:44 AM 51.4216 -2.0152 100° East 364 419 16,400 -1,400 Descending FlightAware UK
Thu 05:16:56 AM 51.4181 -1.9838 100° East 398 458 17,700 -1,400 Climbing FlightAware ADS-B
Thu 05:17:14 AM 51.4120 -1.9290 100° East 360 414 15,700 -1,600 Descending FlightAware UK
Thu 05:17:26 AM 51.4085 -1.8970 100° East 392 451 16,900 -1,600 Climbing FlightAware ADS-B
Thu 05:17:44 AM 51.4027 -1.8438 100° East 356 410 14,900 -1,548 Descending FlightAware UK
Thu 05:17:57 AM 51.3992 -1.8119 100° East 384 442 16,100 419 Climbing FlightAware ADS-B
Thu 05:18:27 AM 51.3897 -1.7264 100° East 383 441 15,200 -1,770 Descending FlightAware ADS-B
Thu 05:18:58 AM 51.3837 -1.6386 96° East 383 441 14,300 -3,057 Descending FlightAware ADS-B
Thu 05:19:20 AM 51.3806 -1.5748 96° East 334 384 12,500 -600 Descending FlightAware UK
Thu 05:19:28 AM 51.3795 -1.5550 96° East 367 422 14,000  Climbing FlightAware ADS-B
Thu 05:19:50 AM 51.3764 -1.4968 96° East 308 354 12,500  Descending FlightAware UK
Thu 05:20:01 AM 51.3748 -1.4728 96° East 338 389 14,000 2,143 Climbing FlightAware ADS-B
Thu 05:20:32 AM 51.3699 -1.3961 96° East 339 390 14,000  Level FlightAware ADS-B
Thu 05:21:02 AM 51.3650 -1.3203 96° East 342 394 14,000 -2,375 Level FlightAware ADS-B
Thu 05:21:20 AM 51.3620 -1.2725 96° East 306 352 12,100 -1,161 Descending FlightAware UK
Thu 05:21:33 AM 51.3602 -1.2450 96° East 336 387 13,400 1,256 Climbing FlightAware ADS-B
Thu 05:22:03 AM 51.3554 -1.1707 96° East 327 376 13,000 -2,426 Descending FlightAware ADS-B
Thu 05:22:20 AM 51.3524 -1.1268 96° East 296 341 11,500  Descending FlightAware UK
Thu 05:22:33 AM 51.3504 -1.0976 96° East 331 381 13,000 -200 Climbing FlightAware ADS-B
Thu 05:22:50 AM 51.3475 -1.0536 96° East 298 343 11,400 -581 Descending FlightAware UK
Thu 05:23:04 AM 51.3453 -1.0221 96° East 333 383 12,700 1,091 Climbing FlightAware ADS-B
Thu 05:23:34 AM 51.3405 -0.9508 96° East 328 377 12,200 -3,000 Descending FlightAware ADS-B
Thu 05:23:50 AM 51.3375 -0.9077 96° East 298 343 10,400 -968 Descending FlightAware UK
Thu 05:24:05 AM 51.3354 -0.8758 96° East 320 368 11,700 913 Climbing FlightAware ADS-B
Thu 05:24:36 AM 51.3303 -0.8033 96° East 318 366 11,100 -689 Descending FlightAware ADS-B
Thu 05:25:06 AM 51.3255 -0.7349 96° East 315 362 11,000 -100 Descending FlightAware ADS-B
Thu 05:25:36 AM 51.3205 -0.6649 96° East 316 364 11,000 -2,133 Level FlightAware ADS-B
Thu 05:25:51 AM 51.3179 -0.6289 96° East 282 325 9,400 -400 Descending FlightAware UK
Thu 05:26:06 AM 51.3158 -0.5971 96° East 301 346 10,800 -800 Climbing FlightAware ADS-B
Thu 05:26:21 AM 51.3134 -0.5626 96° East 270 311 9,000 -800 Descending FlightAware UK
Thu 05:26:36 AM 51.3112 -0.5316 96° East 290 334 10,400 1,304 Climbing FlightAware ADS-B
Thu 05:27:07 AM 51.3068 -0.4697 96° East 281 323 10,000 -769 Descending FlightAware ADS-B
Thu 05:27:15 AM 51.3060 -0.4519 94° East 283 326 9,900 -1,000 Descending FlightAware ADS-B
Thu 05:27:19 AM 51.3062 -0.4426 88° East 286 329 9,800 -750 Descending FlightAware ADS-B
Thu 05:27:23 AM 51.3066 -0.4346 85° East 286 329 9,800 -900 Level FlightAware ADS-B
Thu 05:27:39 AM 51.3087 -0.4014 84° East 282 325 9,500 -1,125 Descending FlightAware ADS-B
Thu 05:27:55 AM 51.3105 -0.3706 85° East 283 326 9,200 -750 Descending FlightAware ADS-B
Thu 05:28:11 AM 51.3127 -0.3359 84° East 279 321 9,100 -692 Descending FlightAware ADS-B
Thu 05:28:21 AM 51.3139 -0.3159 85° East 277 319 8,900 -1,154 Descending FlightAware ADS-B
Thu 05:28:37 AM 51.3162 -0.2811 84° East 279 321 8,600 -1,000 Descending FlightAware ADS-B
Thu 05:28:45 AM 51.3180 -0.2663 79° East 278 320 8,500 -500 Descending FlightAware ADS-B
Thu 05:29:01 AM 51.3230 -0.2339 76° East 268 308 8,400 -563 Descending FlightAware ADS-B
Thu 05:29:17 AM 51.3279 -0.2046 75° East 261 300 8,200 -563 Descending FlightAware ADS-B
Thu 05:29:33 AM 51.3326 -0.1767 75° East 251 289 8,100 -387 Descending FlightAware ADS-B
Thu 05:29:48 AM 51.3372 -0.1493 75° East 240 276 8,000 -581 Descending FlightAware ADS-B
Thu 05:30:04 AM 51.3417 -0.1228 75° East 233 268 7,800 -750 Descending FlightAware ADS-B
Thu 05:30:20 AM 51.3460 -0.0982 74° East 230 265 7,600 -783 Descending FlightAware ADS-B
Thu 05:30:27 AM 51.3484 -0.0866 72° East 230 265 7,500 -1,286 Descending FlightAware ADS-B
Thu 05:30:34 AM 51.3516 -0.0740 68° East 229 264 7,300 -1,500 Descending FlightAware ADS-B
Thu 05:30:51 AM 51.3588 -0.0489 65° Northeast 232 267 6,900 -1,091 Descending FlightAware ADS-B
Thu 05:31:07 AM 51.3659 -0.0252 64° Northeast 231 266 6,700 -909 Descending FlightAware ADS-B
Thu 05:31:24 AM 51.3741 0.0023 64° Northeast 233 268 6,400 -1,200 Descending FlightAware ADS-B
Thu 05:31:32 AM 51.3778 0.0135 62° Northeast 233 268 6,200 -1,000 Descending FlightAware ADS-B
Thu 05:31:36 AM 51.3811 0.0204 52° Northeast 234 269 6,200 -500 Level FlightAware ADS-B
Thu 05:31:44 AM 51.3878 0.0288 38° Northeast 235 270 6,100 -375 Descending FlightAware ADS-B
Thu 05:31:52 AM 51.3963 0.0347 23° Northeast 229 264 6,100  Level FlightAware ADS-B
Thu 05:31:58 AM 51.4010 0.0364 12° North 225 259 6,100 -545 Level FlightAware ADS-B
Thu 05:32:03 AM 51.4063 0.0376 North 223 257 6,000 -667 Descending FlightAware ADS-B
Thu 05:32:07 AM 51.4110 0.0384 North 222 255 6,000 -545 Level FlightAware ADS-B
Thu 05:32:14 AM 51.4186 0.0385 360° North 215 247 5,900 -800 Descending FlightAware ADS-B
Thu 05:32:22 AM 51.4247 0.0362 347° North 211 243 5,800 -462 Descending FlightAware ADS-B
Thu 05:32:27 AM 51.4292 0.0324 333° Northwest 207 238 5,800 -429 Level FlightAware ADS-B
Thu 05:32:36 AM 51.4355 0.0232 318° Northwest 198 228 5,700 -960 Descending FlightAware ADS-B
Thu 05:32:52 AM 51.4445 0.0062 310° West 195 224 5,400 -968 Descending FlightAware ADS-B
Thu 05:33:07 AM 51.4532 -0.0111 309° West 192 221 5,200 -750 Descending FlightAware ADS-B
Thu 05:33:24 AM 51.4628 -0.0300 309° West 192 221 5,000 -686 Descending FlightAware ADS-B
Thu 05:33:42 AM 51.4726 -0.0490 310° West 190 219 4,800 -545 Descending FlightAware ADS-B
Thu 05:33:46 AM 51.4750 -0.0544 305° West 187 215 4,800  Level FlightAware ADS-B
Thu 05:33:50 AM 51.4762 -0.0585 295° West 180 207 4,800 -400 Level FlightAware ADS-B
Thu 05:34:01 AM 51.4775 -0.0722 279° West 169 194 4,700 -522 Descending FlightAware ADS-B
Thu 05:34:13 AM 51.4781 -0.0874 274° West 169 194 4,600 -818 Descending FlightAware ADS-B
Thu 05:34:23 AM 51.4783 -0.0985 272° West 170 196 4,400 -1,161 Descending FlightAware ADS-B
Thu 05:34:44 AM 51.4782 -0.1252 270° West 172 198 4,000 -1,000 Descending FlightAware ADS-B
Thu 05:35:11 AM 51.4782 -0.1575 270° West 158 182 3,600 -2,509 Descending FlightAware ADS-B
Thu 05:35:39 AM 51.4781 -0.1909 270° West 164 189 1,700 -4,071 Descending FlightAware UK

Login

Don't have an account? Register now (free) for customized features, flight alerts, and more!